Time;durP1;ratioP1;P1;durP2;ratioP2;P2;SDS_P1;SDS_P2;PMS_P1;PMS_P2;Temp;Humidity;BMP_temperature;BMP_pressure;BME280_temperature;BME280_humidity;BME280_pressure;Samples;Min_cycle;Max_cycle;Signal;HPM_P1;HPM_P2
2022/09/24 00:00:28;;;;;;;;;;;;;;;;;;5031969;28;19913;-67
2022/09/24 00:02:54;;;;;;;;;;;;;;;;;;5031954;28;19912;-66
2022/09/24 00:05:20;;;;;;;;;;;;;;;;;;5031929;28;19905;-65
2022/09/24 00:07:46;;;;;;;;;;;;;;;;;;5014221;28;20246;-64
2022/09/24 00:10:12;;;;;;;;;;;;;;;;;;5031826;28;19917;-64
2022/09/24 00:12:38;;;;;;;;;;;;;;;;;;5031765;28;19906;-65
2022/09/24 00:15:04;;;;;;;;;;;;;;;;;;5031764;28;20307;-66
2022/09/24 00:17:30;;;;;;;;;;;;;;;;;;5031733;28;19905;-66
2022/09/24 00:19:56;;;;;;;;;;;;;;;;;;5031828;28;19920;-65
2022/09/24 00:22:22;;;;;;;;;;;;;;;;;;5031375;28;20353;-66
2022/09/24 00:27:33;;;;;;;;;;;;;;;;;;5031345;28;19916;-64
2022/09/24 00:29:59;;;;;;;;;;;;;;;;;;5031537;28;19905;-63
2022/09/24 00:32:25;;;;;;;;;;;;;;;;;;5031439;28;19905;-63
2022/09/24 00:34:52;;;;;;;;;;;;;;;;;;5031440;28;19999;-64
2022/09/24 00:37:18;;;;;;;;;;;;;;;;;;5031391;28;20405;-63
2022/09/24 00:39:44;;;;;;;;;;;;;;;;;;5013579;28;20353;-64
2022/09/24 00:42:10;;;;;;;;;;;;;;;;;;5013557;28;19905;-64
2022/09/24 00:44:36;;;;;;;;;;;;;;;;;;5030578;28;19909;-64
2022/09/24 00:47:02;;;;;;;;;;;;;;;;;;5013519;28;19905;-64
2022/09/24 00:49:28;;;;;;;;;;;;;;;;;;5031282;28;19905;-64
2022/09/24 00:51:54;;;;;;;;;;;;;;;;;;5013492;28;19909;-64
2022/09/24 00:54:21;;;;;;;;;;;;;;;;;;5031113;28;19905;-65
2022/09/24 00:56:47;;;;;;;;;;;;;;;;;;5031092;28;19905;-64
2022/09/24 00:59:15;;;;;;;;;;;;;;;;;;5031077;28;19930;-65
2022/09/24 01:01:41;;;;;;;;;;;;;;;;;;5031029;28;19913;-66
2022/09/24 01:04:07;;;;;;;;;;;;;;;;;;5013296;28;19995;-66
2022/09/24 01:06:33;;;;;;;;;;;;;;;;;;5030935;28;19944;-65
2022/09/24 01:08:59;;;;;;;;;;;;;;;;;;5031019;28;19905;-64
2022/09/24 01:11:25;;;;;;;;;;;;;;;;;;5030879;28;19912;-64
2022/09/24 01:13:54;;;;;;;;;;;;;;;;;;5030902;28;20155;-65
2022/09/24 01:16:20;;;;;;;;;;;;;;;;;;5012729;28;19917;-65
2022/09/24 01:18:46;;;;;;;;;;;;;;;;;;5030797;28;20353;-65
2022/09/24 01:21:12;;;;;;;;;;;;;;;;;;5030515;28;19966;-64
2022/09/24 01:23:38;;;;;;;;;;;;;;;;;;5013033;28;19912;-63
2022/09/24 01:26:04;;;;;;;;;;;;;;;;;;5030720;28;19905;-64
2022/09/24 01:28:29;;;;;;;;;;;;;;;;;;5013100;28;19912;-64
2022/09/24 01:30:56;;;;;;;;;;;;;;;;;;5012918;28;19912;-64
2022/09/24 01:33:24;;;;;;;;;;;;;;;;;;5030629;28;19909;-64
2022/09/24 01:35:51;;;;;;;;;;;10.00;99.90;;;;;;5030630;28;19906;-64
2022/09/24 01:38:20;;;;;;;;;;;8.90;99.90;;;;;;5030653;28;20028;-63
2022/09/24 01:40:46;;;;;;;;;;;8.80;99.90;;;;;;5030484;28;19938;-63
2022/09/24 01:43:13;;;;;;;;;;;8.70;99.90;;;;;;5030516;28;19909;-65
2022/09/24 01:45:39;;;;;;;;;;;8.70;99.90;;;;;;5030475;28;19905;-64
2022/09/24 01:48:05;;;;;;;;;;;8.70;99.90;;;;;;5012467;28;19913;-65
2022/09/24 01:50:33;;;;;;;;;;;8.60;99.90;;;;;;5029555;28;19905;-64
2022/09/24 01:53:02;;;;;;;;;;;8.60;99.90;;;;;;5030376;28;19916;-64
2022/09/24 01:55:31;;;;;;;;;;;8.60;99.90;;;;;;5014702;28;19912;-64
2022/09/24 01:58:03;;;;;;;;;;;8.60;99.90;;;;;;5033860;28;19911;-63
2022/09/24 02:00:29;;;;;;;;;;;8.50;99.90;;;;;;5033652;28;19924;-64
2022/09/24 02:03:03;;;;;;;;;;;8.50;99.90;;;;;;5033786;28;19905;-64
2022/09/24 02:05:32;;;;;;;;;;;8.40;99.90;;;;;;5015797;28;19905;-64
2022/09/24 02:08:09;;;;;;;;;;;8.40;99.90;;;;;;5034009;28;20314;-65
2022/09/24 02:10:41;;;;;;;;;;;8.40;99.90;;;;;;5033723;28;19940;-62
2022/09/24 02:13:09;;;;;;;;;;;8.40;99.90;;;;;;5033695;28;19905;-62
2022/09/24 02:15:37;;;;;;;;;;;8.40;99.90;;;;;;5033269;28;19921;-62
2022/09/24 02:18:05;;;;;;;;;;;8.40;99.90;;;;;;5033533;28;19955;-62
2022/09/24 02:20:33;;;;;;;;;;;8.40;99.90;;;;;;5033385;28;19921;-63
2022/09/24 02:22:59;;;;;;;;;;;8.40;99.90;;;;;;5015795;28;19959;-62
2022/09/24 02:25:44;;;;;;;;;;;8.40;99.90;;;;;;5015721;28;19940;-62
2022/09/24 02:28:09;;;;;;;;;;;8.40;99.90;;;;;;5033036;28;19909;-62
2022/09/24 02:30:45;;;;;;;;;;;8.40;99.90;;;;;;5033380;28;20302;-62
2022/09/24 02:34:19;;;;;;;;;;;8.40;99.90;;;;;;5033634;28;19905;-63
2022/09/24 02:35:57;;;;;;;;;;;8.30;99.90;;;;;;5032794;28;19909;-64
2022/09/24 02:38:23;;;;;;;;;;;8.40;99.90;;;;;;5033292;28;19954;-63
2022/09/24 02:40:49;;;;;;;;;;;8.40;99.90;;;;;;5033133;28;19920;-62
2022/09/24 02:43:15;;;;;;;;;;;8.30;99.90;;;;;;5033194;28;19905;-63
2022/09/24 02:45:40;;;;;;;;;;;8.30;99.90;;;;;;5015396;28;19905;-63
2022/09/24 02:48:09;;;;;;;;;;;8.30;99.90;;;;;;5015036;28;19905;-63
2022/09/24 02:50:35;;;;;;;;;;;8.30;99.90;;;;;;5033085;28;19905;-63
2022/09/24 02:53:01;;;;;;;;;;;8.20;99.90;;;;;;5033005;28;19957;-63
2022/09/24 02:55:26;;;;;;;;;;;8.20;99.90;;;;;;5032962;28;20341;-64
2022/09/24 02:57:52;;;;;;;;;;;8.30;99.90;;;;;;5033280;28;20027;-63
2022/09/24 03:00:19;;;;;;;;;;;8.30;99.90;;;;;;5032904;28;20444;-64
2022/09/24 03:02:46;;;;;;;;;;;8.30;99.90;;;;;;5032891;28;20349;-63
2022/09/24 03:05:12;;;;;;;;;;;8.30;99.90;;;;;;5032812;28;19909;-62
2022/09/24 03:07:38;;;;;;;;;;;8.30;99.90;;;;;;5031763;28;19912;-62
2022/09/24 03:10:04;;;;;;;;;;;8.30;99.90;;;;;;5032838;28;19909;-63
2022/09/24 03:12:29;;;;;;;;;;;8.30;99.90;;;;;;5032460;28;19917;-62
2022/09/24 03:14:55;;;;;;;;;;;8.20;99.90;;;;;;5032677;28;19911;-63
2022/09/24 03:17:21;;;;;;;;;;;8.20;99.90;;;;;;5032753;28;19921;-63
2022/09/24 03:19:47;;;;;;;;;;;8.10;99.90;;;;;;5032047;28;19905;-63
2022/09/24 03:22:12;;;;;;;;;;;8.10;99.90;;;;;;5032432;28;20279;-62
2022/09/24 03:24:38;;;;;;;;;;;8.10;99.90;;;;;;5032525;28;20039;-64
2022/09/24 03:27:03;;;;;;;;;;;8.00;99.90;;;;;;5032243;28;19912;-64
2022/09/24 03:32:13;;;;;;;;;;;7.90;99.90;;;;;;5032224;28;19928;-63
2022/09/24 03:34:39;;;;;;;;;;;7.90;99.90;;;;;;5032389;28;20357;-63
2022/09/24 03:37:05;;;;;;;;;;;7.90;99.90;;;;;;5031519;28;19905;-63
2022/09/24 03:39:31;;;;;;;;;;;7.90;99.90;;;;;;5032241;28;19909;-63
2022/09/24 03:41:57;;;;;;;;;;;7.90;99.90;;;;;;5014421;28;20322;-63
2022/09/24 03:44:22;;;;;;;;;;;7.90;99.90;;;;;;5014262;28;19905;-62
2022/09/24 03:46:48;;;;;;;;;;;7.90;99.90;;;;;;5014510;28;19936;-62
2022/09/24 03:49:14;;;;;;;;;;;7.90;99.90;;;;;;5032209;28;19912;-62
2022/09/24 03:51:40;;;;;;;;;;;7.90;99.90;;;;;;5032143;28;20261;-63
2022/09/24 03:54:05;;;;;;;;;;;7.80;99.90;;;;;;5014358;28;20289;-63
2022/09/24 03:56:31;;;;;;;;;;;7.80;99.90;;;;;;5014061;28;19909;-63
2022/09/24 03:58:57;;;;;;;;;;;7.80;99.90;;;;;;5014682;28;19912;-63
2022/09/24 04:01:22;;;;;;;;;;;7.80;99.90;;;;;;5014195;28;19938;-62
2022/09/24 04:03:48;;;;;;;;;;;7.80;99.90;;;;;;5031941;28;20357;-63
2022/09/24 04:06:14;;;;;;;;;;;7.70;99.90;;;;;;5031914;28;20001;-63
2022/09/24 04:08:40;;;;;;;;;;;;;;;;;;5014157;28;19944;-63
2022/09/24 04:11:06;;;;;;;;;;;;;;;;;;5014173;28;19913;-63
2022/09/24 04:13:32;;;;;;;;;;;;;;;;;;5013774;28;19917;-62
2022/09/24 04:15:58;;;;;;;;;;;;;;;;;;5031587;28;19917;-63
2022/09/24 04:18:24;;;;;;;;;;;;;;;;;;5031402;28;19909;-63
2022/09/24 04:20:50;;;;;;;;;;;;;;;;;;5031597;28;20020;-63
2022/09/24 04:23:16;;;;;;;;;;;;;;;;;;5031961;28;19959;-64
2022/09/24 04:25:42;;;;;;;;;;;;;;;;;;5031906;28;20276;-63
2022/09/24 04:28:08;;;;;;;;;;;;;;;;;;5031310;28;19905;-62
2022/09/24 04:30:34;;;;;;;;;;;;;;;;;;5013768;28;19905;-63
2022/09/24 04:33:01;;;;;;;;;;;;;;;;;;5031499;28;19979;-64
2022/09/24 04:35:28;;;;;;;;;;;;;;;;;;5031045;28;20410;-62
2022/09/24 04:37:54;;;;;;;;;;;;;;;;;;5031385;28;19962;-62
2022/09/24 04:40:20;;;;;;;;;;;;;;;;;;5031332;28;19920;-62
2022/09/24 04:42:47;;;;;;;;;;;;;;;;;;5031332;28;20353;-63
2022/09/24 04:45:13;;;;;;;;;;;;;;;;;;5031305;28;20372;-64
2022/09/24 04:47:39;;;;;;;;;;;;;;;;;;5031259;28;19920;-64
2022/09/24 04:50:05;;;;;;;;;;;;;;;;;;5013609;28;19959;-64
2022/09/24 04:52:32;;;;;;;;;;;;;;;;;;5031245;28;20615;-63
2022/09/24 04:54:58;;;;;;;;;;;;;;;;;;5031183;28;19909;-63
2022/09/24 04:57:24;;;;;;;;;;;;;;;;;;5013261;28;19905;-62
2022/09/24 04:59:50;;;;;;;;;;;;;;;;;;5013312;28;19988;-63
2022/09/24 05:02:17;;;;;;;;;;;;;;;;;;5031118;28;19909;-62
2022/09/24 05:04:43;;;;;;;;;;;;;;;;;;5013357;28;19909;-62
2022/09/24 05:07:09;;;;;;;;;;;;;;;;;;5031282;28;19928;-63
2022/09/24 05:09:35;;;;;;;;;;;;;;;;;;5030735;28;19938;-63
2022/09/24 05:12:01;;;;;;;;;;;;;;;;;;5030969;28;20353;-63
2022/09/24 05:14:27;;;;;;;;;;;;;;;;;;5030621;28;20371;-63
2022/09/24 05:16:53;;;;;;;;;;;;;;;;;;5030871;28;19923;-63
2022/09/24 05:19:19;;;;;;;;;;;;;;;;;;5030812;28;19917;-63
2022/09/24 05:21:45;;;;;;;;;;;;;;;;;;5030734;28;19909;-64
2022/09/24 05:24:11;;;;;;;;;;;;;;;;;;5013065;28;19915;-64
2022/09/24 05:29:22;;;;;;;;;;;;;;;;;;5029809;28;19915;-63
2022/09/24 05:31:48;;;;;;;;;;;;;;;;;;5012943;28;19909;-63
2022/09/24 05:34:14;;;;;;;;;;;;;;;;;;5030636;28;19909;-62
2022/09/24 05:36:42;;;;;;;;;;;;;;;;;;5030612;28;19908;-63
2022/09/24 05:39:08;;;;;;;;;;;;;;;;;;5030570;28;19995;-63
2022/09/24 05:41:34;;;;;;;;;;;;;;;;;;5030503;28;20003;-62
2022/09/24 05:44:00;;;;;;;;;;;;;;;;;;5012779;28;19935;-62
2022/09/24 05:46:26;;;;;;;;;;;;;;;;;;5030511;28;19944;-64
2022/09/24 05:48:52;;;;;;;;;;;;;;;;;;5030399;28;19909;-63
2022/09/24 05:51:18;;;;;;;;;;;;;;;;;;5030306;28;20284;-62
2022/09/24 05:53:44;;;;;;;;;;;;;;;;;;5030690;28;19911;-63
2022/09/24 05:56:10;;;;;;;;;;;;;;;;;;5030369;28;19992;-64
2022/09/24 05:58:36;;;;;;;;;;;;;;;;;;5030312;28;19960;-64
2022/09/24 06:01:02;;;;;;;;;;;;;;;;;;5030259;28;19964;-63
2022/09/24 06:03:28;;;;;;;;;;;;;;;;;;5030317;28;19913;-63
2022/09/24 06:05:55;;;;;;;;;;;;;;;;;;5030216;28;19905;-63
2022/09/24 06:08:21;;;;;;;;;;;;;;;;;;5030179;28;19926;-63
2022/09/24 06:10:47;;;;;;;;;;;;;;;;;;5030124;28;19909;-63
2022/09/24 06:13:13;;;;;;;;;;;;;;;;;;5012239;28;19905;-63
2022/09/24 06:15:40;;;;;;;;;;;;;;;;;;5009874;28;19921;-68
2022/09/24 06:18:06;;;;;;;;;;;;;;;;;;5029677;28;19905;-64
2022/09/24 06:20:32;;;;;;;;;;;;;;;;;;5029574;28;19933;-65
2022/09/24 06:22:58;;;;;;;;;;;;;;;;;;5012245;28;20379;-65
2022/09/24 06:25:24;;;;;;;;;;;;;;;;;;5012106;28;19905;-64
2022/09/24 06:27:50;;;;;;;;;;;;;;;;;;5018893;28;19935;-63
2022/09/24 06:30:16;;;;;;;;;;;;;;;;;;5077915;28;19905;-64
2022/09/24 06:32:42;;;;;;;;;;;;;;;;;;5009727;28;19909;-67
2022/09/24 06:35:08;;;;;;;;;;;;;;;;;;5077748;28;20367;-65
2022/09/24 06:37:34;;;;;;;;;;;;;;;;;;5077621;28;19909;-67
2022/09/24 06:40:00;;;;;;;;;;;;;;;;;;5009440;28;19995;-67
2022/09/24 06:42:26;;;;;;;;;;;;;;;;;;5012872;28;19910;-66
2022/09/24 06:44:52;;;;;;;;;;;;;;;;;;5013213;28;19960;-64
2022/09/24 06:47:18;;;;;;;;;;;;;;;;;;5013475;28;19937;-65
2022/09/24 06:49:44;;;;;;;;;;;;;;;;;;5012989;28;19910;-66
2022/09/24 06:52:10;;;;;;;;;;;;;;;;;;5018894;28;20383;-64
2022/09/24 06:54:37;;;;;;;;;;;;;;;;;;5032748;28;19905;-66
2022/09/24 06:57:03;;;;;;;;;;;;;;;;;;5032854;28;19974;-69
2022/09/24 06:59:29;;;;;;;;;;;;;;;;;;5032897;28;19909;-67
2022/09/24 07:01:55;;;;;;;;;;;;;;;;;;5014571;28;20360;-62
2022/09/24 07:04:21;;;;;;;;;;;;;;;;;;5033059;28;19916;-62
2022/09/24 07:07:33;;;;;;;;;;;;;;;;;;5032691;28;19905;-64
2022/09/24 07:09:35;;;;;;;;;;;;;;;;;;5018028;28;19905;-64
2022/09/24 07:12:04;;;;;;;;;;;;;;;;;;5032807;28;19916;-66
2022/09/24 07:14:30;;;;;;;;;;;10.80;99.90;;;;;;5032256;28;20250;-65
2022/09/24 07:16:55;;;;;;;;;;;11.50;99.90;;;;;;5032125;28;19928;-65
2022/09/24 07:19:21;;;;;;;;;;;11.60;99.90;;;;;;5032170;28;20280;-65
2022/09/24 07:21:47;;;;;;;;;;;11.70;99.90;;;;;;5032004;28;19909;-66
2022/09/24 07:24:13;;;;;;;;;;;;;;;;;;5032382;28;19909;-63
2022/09/24 07:26:39;;;;;;;;;;;;;;;;;;5032351;28;20306;-65
2022/09/24 07:29:05;;;;;;;;;;;;;;;;;;5032165;28;20281;-64
2022/09/24 07:31:31;;;;;;;;;;;;;;;;;;5014798;28;19912;-65
2022/09/24 07:33:58;;;;;;;;;;;12.50;99.90;;;;;;5032277;28;19916;-64
2022/09/24 07:36:23;;;;;;;;;;;12.50;99.90;;;;;;5032384;28;19905;-66
2022/09/24 07:38:49;;;;;;;;;;;12.80;99.90;;;;;;5014659;28;19906;-66
2022/09/24 07:41:15;;;;;;;;;;;12.90;99.90;;;;;;5032273;28;19908;-64
2022/09/24 07:43:42;;;;;;;;;;;13.10;99.90;;;;;;5014538;28;19909;-65
2022/09/24 07:46:08;;;;;;;;;;;13.20;99.90;;;;;;5031970;28;20250;-65
2022/09/24 07:48:34;;;;;;;;;;;;;;;;;;5031870;28;19905;-65
2022/09/24 07:51:00;;;;;;;;;;;;;;;;;;5014527;28;20268;-66
2022/09/24 07:53:26;;;;;;;;;;;;;;;;;;5031536;28;19905;-63
2022/09/24 07:55:52;;;;;;;;;;;;;;;;;;5014661;28;20299;-66
2022/09/24 07:58:18;;;;;;;;;;;;;;;;;;5032019;28;19912;-63
2022/09/24 08:00:44;;;;;;;;;;;13.20;99.90;;;;;;5014124;28;19920;-65
2022/09/24 08:03:09;;;;;;;;;;;14.00;99.90;;;;;;5014250;28;19909;-65
2022/09/24 08:05:36;;;;;;;;;;;14.10;99.90;;;;;;5031963;28;20307;-66
2022/09/24 08:08:01;;;;;;;;;;;14.30;99.90;;;;;;5031868;28;19905;-64
2022/09/24 08:10:27;;;;;;;;;;;14.40;99.90;;;;;;5031729;28;20007;-64
2022/09/24 08:12:55;;;;;;;;;;;14.50;99.90;;;;;;5031812;28;19934;-66
2022/09/24 08:15:21;;;;;;;;;;;14.40;99.90;;;;;;5031838;28;20242;-68
2022/09/24 08:17:47;;;;;;;;;;;14.50;99.90;;;;;;5014010;28;20003;-65
2022/09/24 08:20:12;;;;;;;;;;;14.70;99.90;;;;;;5026827;28;19961;-66
2022/09/24 08:34:39;;;;;;;;;;;;;;;;;;5110873;27;19919;-67
2022/09/24 08:37:05;;;;;;;;;;;;;;;;;;5111011;28;20391;-69
2022/09/24 08:39:31;;;;;;;;;;;15.80;99.90;;;;;;5111088;28;19947;-68
2022/09/24 08:42:00;;;;;;;;;;;16.30;99.90;;;;;;5111076;28;19916;-67
2022/09/24 08:47:24;;;;;;;;;;;;;;;;;;5110170;28;19915;-67
2022/09/24 08:50:10;;;;;;;;;;;16.40;99.90;;;;;;5110826;28;19912;-67
2022/09/24 08:52:42;;;;;;;;;;;16.70;99.90;;;;;;5128934;27;20293;-67
2022/09/24 08:55:08;;;;;;;;;;;;;;;;;;5110495;28;20386;-67
2022/09/24 08:57:34;;;;;;;;;;;;;;;;;;5108641;28;19912;-67
2022/09/24 08:59:59;;;;;;;;;;;16.80;99.90;;;;;;5110647;28;19945;-67
2022/09/24 09:02:33;;;;;;;;;;;17.20;99.90;;;;;;5110380;28;19908;-69
2022/09/24 09:04:59;;;;;;;;;;;17.30;99.90;;;;;;5110113;28;19912;-66
2022/09/24 09:07:30;;;;;;;;;;;17.40;99.90;;;;;;5110332;28;19908;-67
2022/09/24 09:09:55;;;;;;;;;;;17.50;99.90;;;;;;5110085;28;19908;-66
2022/09/24 09:12:26;;;;;;;;;;;17.90;99.90;;;;;;5109161;28;19976;-69
2022/09/24 09:15:02;;;;;;;;;;;17.90;99.90;;;;;;5109084;28;19934;-69
2022/09/24 09:17:27;;;;;;;;;;;18.10;99.90;;;;;;5110359;28;19919;-69
2022/09/24 09:19:57;;;;;;;;;;;18.30;99.90;;;;;;5110642;28;20006;-67
2022/09/24 09:22:28;;;;;;;;;;;18.50;99.90;;;;;;5110318;28;19955;-68
2022/09/24 09:24:54;;;;;;;;;;;18.80;99.90;;;;;;5110315;28;20390;-68
2022/09/24 09:27:20;;;;;;;;;;;19.10;99.90;;;;;;5108799;28;19919;-70
2022/09/24 09:29:50;;;;;;;;;;;19.30;99.90;;;;;;5110103;28;20010;-69
2022/09/24 09:32:34;;;;;;;;;;;19.40;99.90;;;;;;5109777;28;19916;-69
2022/09/24 09:35:12;;;;;;;;;;;19.40;99.90;;;;;;5099578;28;19908;-69
2022/09/24 09:38:02;;;;;;;;;;;19.50;99.90;;;;;;5096293;28;19908;-69
2022/09/24 09:40:40;;;;;;;;;;;19.50;99.90;;;;;;5096400;28;19912;-70
2022/09/24 09:43:12;;;;;;;;;;;19.90;99.90;;;;;;5096362;28;19908;-69
2022/09/24 09:45:43;;;;;;;;;;;20.00;99.90;;;;;;5096337;28;19958;-68
2022/09/24 09:48:15;;;;;;;;;;;20.00;99.90;;;;;;5094005;28;19916;-69
2022/09/24 09:50:47;;;;;;;;;;;20.00;99.90;;;;;;5095956;28;20361;-70
2022/09/24 09:53:20;;;;;;;;;;;20.20;99.90;;;;;;5094760;28;20400;-72
2022/09/24 09:55:59;;;;;;;;;;;20.50;99.90;;;;;;5095989;28;19920;-71
2022/09/24 09:58:26;;;;;;;;;;;20.20;99.90;;;;;;5095752;28;19908;-70
2022/09/24 10:01:01;;;;;;;;;;;20.30;99.90;;;;;;5095827;28;19948;-69
2022/09/24 10:03:31;;;;;;;;;;;20.60;99.90;;;;;;5096178;28;20264;-69
2022/09/24 10:05:57;;;;;;;;;;;20.70;99.90;;;;;;5095850;28;19966;-70
2022/09/24 10:08:24;;;;;;;;;;;20.70;99.90;;;;;;5095858;28;19977;-69
2022/09/24 10:10:54;;;;;;;;;;;20.70;99.90;;;;;;5095658;28;19965;-71
2022/09/24 10:13:20;;;;;;;;;;;20.70;99.90;;;;;;5094082;28;20077;-70
2022/09/24 10:15:59;;;;;;;;;;;20.90;99.90;;;;;;5094618;28;19999;-67
2022/09/24 10:18:26;;;;;;;;;;;;;;;;;;5093908;28;19940;-72
2022/09/24 10:20:53;;;;;;;;;;;21.00;99.90;;;;;;5094087;28;19919;-72
2022/09/24 10:23:20;;;;;;;;;;;21.90;97.30;;;;;;5094938;28;19916;-71
2022/09/24 10:25:50;;;;;;;;;;;22.40;98.00;;;;;;5095336;28;19908;-71
2022/09/24 10:31:04;;;;;;;;;;;23.70;95.30;;;;;;5095338;28;19950;-72
2022/09/24 10:33:40;;;;;;;;;;;24.40;94.20;;;;;;5095107;28;19989;-70
2022/09/24 10:36:14;;;;;;;;;;;24.40;91.60;;;;;;5095180;28;19908;-72
2022/09/24 10:38:39;;;;;;;;;;;25.10;90.40;;;;;;5095017;28;19908;-72
2022/09/24 10:41:24;;;;;;;;;;;25.20;87.50;;;;;;5095038;28;19915;-71
2022/09/24 10:43:51;;;;;;;;;;;25.80;85.70;;;;;;5095027;28;19998;-71
2022/09/24 10:46:32;;;;;;;;;;;25.70;85.50;;;;;;5093837;28;20351;-71
2022/09/24 10:48:58;;;;;;;;;;;26.10;84.40;;;;;;5093561;28;20011;-71
2022/09/24 10:51:46;;;;;;;;;;;26.60;80.60;;;;;;5094608;28;20001;-72
2022/09/24 10:54:15;;;;;;;;;;;26.50;79.00;;;;;;5093779;28;19917;-73
2022/09/24 10:56:43;;;;;;;;;;;27.50;79.20;;;;;;5094499;28;20419;-71
2022/09/24 10:59:12;;;;;;;;;;;27.90;75.40;;;;;;5094744;28;20296;-74
2022/09/24 11:01:45;;;;;;;;;;;28.10;77.10;;;;;;5094679;28;20017;-73
2022/09/24 11:04:11;;;;;;;;;;;28.30;72.60;;;;;;5094566;28;19951;-70
2022/09/24 11:06:51;;;;;;;;;;;28.90;71.10;;;;;;5094732;28;19961;-72
2022/09/24 11:09:29;;;;;;;;;;;30.00;69.70;;;;;;5094763;28;19908;-69
2022/09/24 11:11:55;;;;;;;;;;;29.90;69.70;;;;;;5094384;28;19949;-68
2022/09/24 11:14:40;;;;;;;;;;;29.70;71.00;;;;;;5093327;28;20352;-69
2022/09/24 11:17:11;;;;;;;;;;;29.40;70.00;;;;;;5094543;28;20386;-68
2022/09/24 11:19:37;;;;;;;;;;;29.10;70.30;;;;;;5094371;28;19908;-68
2022/09/24 11:22:16;;;;;;;;;;;29.60;68.20;;;;;;5094392;28;20369;-70
2022/09/24 11:24:57;;;;;;;;;;;29.60;68.90;;;;;;5093147;28;19908;-69
2022/09/24 11:27:35;;;;;;;;;;;29.20;69.20;;;;;;5094381;28;20003;-69
2022/09/24 11:30:18;;;;;;;;;;;29.20;67.70;;;;;;5094707;28;19938;-68
2022/09/24 11:32:43;;;;;;;;;;;29.70;65.80;;;;;;5091440;28;19969;-70
2022/09/24 11:35:12;;;;;;;;;;;29.90;67.00;;;;;;5092340;28;20004;-73
2022/09/24 11:37:46;;;;;;;;;;;30.60;68.00;;;;;;5094126;28;19912;-71
2022/09/24 11:40:28;;;;;;;;;;;31.20;64.40;;;;;;5093968;28;19912;-71
2022/09/24 11:42:57;;;;;;;;;;;30.80;63.80;;;;;;5093948;28;19915;-71
2022/09/24 11:45:23;;;;;;;;;;;31.00;65.60;;;;;;5094154;28;20267;-70
2022/09/24 11:47:55;;;;;;;;;;;30.50;63.50;;;;;;5092311;28;19912;-70
2022/09/24 11:50:27;;;;;;;;;;;31.40;63.60;;;;;;5093809;28;19912;-72
2022/09/24 11:52:55;;;;;;;;;;;31.20;62.10;;;;;;5093694;28;19916;-69
2022/09/24 11:55:48;;;;;;;;;;;31.80;61.80;;;;;;5093710;28;19912;-69
2022/09/24 11:58:19;;;;;;;;;;;33.20;58.80;;;;;;5089612;28;19912;-70
2022/09/24 12:00:48;;;;;;;;;;;33.20;59.40;;;;;;5093628;28;19908;-72
2022/09/24 12:03:27;;;;;;;;;;;33.40;60.70;;;;;;5092345;28;19951;-71
2022/09/24 12:06:06;;;;;;;;;;;33.40;57.90;;;;;;5091493;28;19908;-74
2022/09/24 12:08:36;;;;;;;;;;;34.20;56.50;;;;;;5091373;28;19908;-71
2022/09/24 12:11:02;;;;;;;;;;;34.70;56.50;;;;;;5088742;28;19908;-72
2022/09/24 12:13:28;;;;;;;;;;;;;;;;;;5092396;28;19919;-73
2022/09/24 12:15:55;;;;;;;;;;;36.60;56.20;;;;;;5091092;28;19923;-71
2022/09/24 12:18:24;;;;;;;;;;;36.40;57.00;;;;;;5088430;28;20284;-71
2022/09/24 12:20:51;;;;;;;;;;;36.50;55.40;;;;;;5092378;28;19912;-70
2022/09/24 12:23:21;;;;;;;;;;;37.20;63.40;;;;;;5116616;28;19931;-70
2022/09/24 12:25:48;;;;;;;;;;;37.00;52.90;;;;;;5092545;28;20355;-70
2022/09/24 12:32:53;;;;;;;;;;;36.90;52.60;;;;;;5092226;28;19911;-70
2022/09/24 12:34:04;;;;;;;;;;;37.70;52.50;;;;;;5091017;28;20265;-70
2022/09/24 12:36:36;;;;;;;;;;;37.10;51.00;;;;;;5089378;28;19915;-69
2022/09/24 12:39:06;;;;;;;;;;;37.20;49.80;;;;;;5089528;28;19957;-69
2022/09/24 12:41:32;;;;;;;;;;;37.10;51.50;;;;;;5092211;28;19915;-69
2022/09/24 12:44:10;;;;;;;;;;;36.20;51.20;;;;;;5092031;28;19908;-70
2022/09/24 12:46:44;;;;;;;;;;;36.90;52.60;;;;;;5092264;28;19916;-69
2022/09/24 12:49:30;;;;;;;;;;;36.50;52.90;;;;;;5092680;28;19969;-70
2022/09/24 12:51:57;;;;;;;;;;;37.40;52.80;;;;;;5081914;28;19915;-69
2022/09/24 12:54:27;;;;;;;;;;;37.70;51.80;;;;;;5093391;28;19919;-68
2022/09/24 12:57:10;;;;;;;;;;;38.70;52.10;;;;;;5093326;28;19945;-69
2022/09/24 13:00:05;;;;;;;;;;;38.50;48.70;;;;;;5093178;28;19999;-68
2022/09/24 13:02:32;;;;;;;;;;;;;;;;;;5037907;28;20003;-67
2022/09/24 13:04:58;;;;;;;;;;;;;;;;;;5093289;28;19916;-69
2022/09/24 13:07:38;;;;;;;;;;;36.70;48.00;;;;;;5093261;28;19908;-70
2022/09/24 13:10:16;;;;;;;;;;;31.70;53.70;;;;;;5095365;28;19954;-69
2022/09/24 13:12:42;;;;;;;;;;;31.20;53.80;;;;;;5094172;28;19912;-68
2022/09/24 13:15:19;;;;;;;;;;;33.00;53.80;;;;;;5095461;28;19916;-69
2022/09/24 13:17:46;;;;;;;;;;;33.70;52.70;;;;;;5097094;28;19998;-69
2022/09/24 13:20:24;;;;;;;;;;;33.90;54.20;;;;;;5095032;28;19915;-69
2022/09/24 13:22:57;;;;;;;;;;;33.40;54.20;;;;;;5096489;28;19948;-70
2022/09/24 13:25:24;;;;;;;;;;;31.20;55.70;;;;;;5096727;28;20019;-67
2022/09/24 13:28:03;;;;;;;;;;;31.10;55.80;;;;;;5095207;28;19912;-67
2022/09/24 13:30:29;;;;;;;;;;;29.80;56.50;;;;;;5096396;28;20272;-66
2022/09/24 13:33:13;;;;;;;;;;;32.10;55.90;;;;;;5094428;28;19931;-69
2022/09/24 13:35:42;;;;;;;;;;;34.60;53.10;;;;;;5094610;28;19908;-69
2022/09/24 13:38:12;;;;;;;;;;;35.70;52.40;;;;;;5093364;28;20357;-71
2022/09/24 13:40:42;;;;;;;;;;;35.70;51.20;;;;;;5095895;28;19912;-69
2022/09/24 13:43:13;;;;;;;;;;;35.90;49.80;;;;;;5094099;28;19965;-70
2022/09/24 13:45:41;;;;;;;;;;;36.50;51.50;;;;;;5093797;28;20276;-69
2022/09/24 13:48:26;;;;;;;;;;;36.90;50.20;;;;;;5094137;28;20364;-70
2022/09/24 13:50:52;;;;;;;;;;;;;;;;;;5095179;28;19963;-69
2022/09/24 13:53:24;;;;;;;;;;;36.80;50.10;;;;;;5095201;28;19951;-69
2022/09/24 13:55:50;;;;;;;;;;;;;;;;;;5094130;28;19955;-69
2022/09/24 13:58:26;;;;;;;;;;;30.60;56.20;;;;;;5095465;28;19908;-68
2022/09/24 14:00:52;;;;;;;;;;;30.30;55.90;;;;;;5095503;28;19957;-69
2022/09/24 14:03:21;;;;;;;;;;;28.90;59.80;;;;;;5094694;28;20322;-67
2022/09/24 14:05:47;;;;;;;;;;;28.00;61.60;;;;;;5095270;28;19908;-67
2022/09/24 14:08:14;;;;;;;;;;;27.30;63.40;;;;;;5095802;28;19912;-66
2022/09/24 14:10:40;;;;;;;;;;;26.90;62.60;;;;;;5095679;28;19954;-65
2022/09/24 14:13:15;;;;;;;;;;;26.50;63.00;;;;;;5094425;28;19924;-69
2022/09/24 14:15:49;;;;;;;;;;;26.60;63.00;;;;;;5094378;28;19919;-69
2022/09/24 14:18:15;;;;;;;;;;;26.50;65.10;;;;;;5093236;28;19961;-69
2022/09/24 14:20:41;;;;;;;;;;;26.20;66.40;;;;;;5095357;28;19908;-68
2022/09/24 14:23:14;;;;;;;;;;;25.90;66.50;;;;;;5095138;28;20012;-67
2022/09/24 14:25:41;;;;;;;;;;;25.60;66.00;;;;;;5092793;28;19913;-71
2022/09/24 14:28:06;;;;;;;;;;;25.30;69.20;;;;;;5094957;28;19959;-68
2022/09/24 14:30:35;;;;;;;;;;;24.90;68.80;;;;;;5094871;28;20351;-67
2022/09/24 14:33:06;;;;;;;;;;;24.70;70.60;;;;;;5094436;28;19977;-69
2022/09/24 14:35:31;;;;;;;;;;;24.50;71.10;;;;;;5094515;28;19991;-69
2022/09/24 14:38:10;;;;;;;;;;;24.30;72.50;;;;;;5093726;28;19908;-69
2022/09/24 14:41:02;;;;;;;;;;;24.20;73.00;;;;;;5094964;28;20383;-71
2022/09/24 14:43:34;;;;;;;;;;;24.10;73.60;;;;;;5054672;28;20515;-69
2022/09/24 14:46:11;;;;;;;;;;;24.10;73.40;;;;;;5094534;28;19927;-71
2022/09/24 14:48:37;;;;;;;;;;;24.00;73.60;;;;;;5094709;28;20413;-68
2022/09/24 14:51:03;;;;;;;;;;;23.90;73.70;;;;;;5094298;28;19955;-68
2022/09/24 14:53:31;;;;;;;;;;;23.80;73.60;;;;;;5093905;28;19955;-67
2022/09/24 14:55:57;;;;;;;;;;;23.60;74.70;;;;;;5094038;28;19919;-69
2022/09/24 14:58:23;;;;;;;;;;;23.50;74.80;;;;;;5093273;28;20283;-69
2022/09/24 15:00:54;;;;;;;;;;;23.30;76.00;;;;;;5094491;28;19915;-68
2022/09/24 15:03:26;;;;;;;;;;;23.20;75.70;;;;;;5094586;28;19908;-68
2022/09/24 15:05:51;;;;;;;;;;;23.10;76.30;;;;;;5093293;28;19919;-68
2022/09/24 15:08:28;;;;;;;;;;;23.00;77.30;;;;;;5093389;28;19908;-67
2022/09/24 15:10:58;;;;;;;;;;;22.90;77.10;;;;;;5094411;28;19915;-68
2022/09/24 15:13:31;;;;;;;;;;;22.80;77.80;;;;;;5094308;28;19955;-69
2022/09/24 15:16:20;;;;;;;;;;;22.70;78.50;;;;;;5093053;28;19916;-66
2022/09/24 15:18:56;;;;;;;;;;;22.60;78.10;;;;;;5085661;28;19908;-68
2022/09/24 15:21:21;;;;;;;;;;;22.40;79.20;;;;;;5091795;28;19908;-68
2022/09/24 15:23:47;;;;;;;;;;;22.30;80.00;;;;;;5094067;28;19923;-67
2022/09/24 15:26:13;;;;;;;;;;;22.30;80.90;;;;;;5092603;28;19912;-68
2022/09/24 15:28:39;;;;;;;;;;;22.20;81.50;;;;;;5091241;28;19916;-69
2022/09/24 15:31:04;;;;;;;;;;;22.10;82.60;;;;;;5093755;28;20353;-69
2022/09/24 15:33:30;;;;;;;;;;;22.10;83.70;;;;;;5092708;28;19974;-71
2022/09/24 15:35:55;;;;;;;;;;;22.00;84.10;;;;;;5093531;28;19908;-68
2022/09/24 15:38:21;;;;;;;;;;;22.00;86.00;;;;;;5091101;28;19964;-68
2022/09/24 15:40:50;;;;;;;;;;;21.90;84.80;;;;;;5093684;28;19915;-65
2022/09/24 15:43:20;;;;;;;;;;;21.90;84.00;;;;;;5093429;28;19987;-68
2022/09/24 15:45:46;;;;;;;;;;;21.90;84.40;;;;;;5093443;28;19914;-67